createdAt,value
2022-08-09T00:00:04.424Z,85.43
2022-08-09T00:02:49.104Z,83.97
2022-08-09T00:06:17.500Z,84.40
2022-08-09T00:08:11.041Z,83.90
2022-08-09T00:10:40.338Z,83.13
2022-08-09T00:13:17.019Z,82.04
2022-08-09T00:15:58.142Z,81.83
2022-08-09T00:18:28.869Z,81.21
2022-08-09T00:20:57.474Z,81.46
2022-08-09T00:23:56.395Z,81.41
2022-08-09T00:26:14.882Z,81.41
2022-08-09T00:28:52.229Z,81.28
2022-08-09T00:31:57.556Z,80.63
2022-08-09T00:34:14.314Z,80.39
2022-08-09T00:36:43.196Z,79.99
2022-08-09T00:40:01.922Z,79.55
2022-08-09T00:44:13.563Z,79.16
2022-08-09T00:44:50.049Z,79.20
2022-08-09T00:47:19.940Z,78.96
2022-08-09T00:49:55.108Z,78.91
2022-08-09T00:52:30.693Z,78.72
2022-08-09T00:55:00.914Z,78.44
2022-08-09T00:57:34.645Z,78.39
2022-08-09T01:00:21.657Z,78.21
2022-08-09T01:02:59.061Z,78.19
2022-08-09T01:05:51.479Z,78.13
2022-08-09T01:08:30.495Z,78.25
2022-08-09T01:11:09.164Z,78.24
2022-08-09T01:13:58.664Z,78.18
2022-08-09T01:16:31.890Z,78.25
2022-08-09T01:19:17.122Z,78.14
2022-08-09T01:22:29.123Z,78.10
2022-08-09T01:25:12.404Z,78.02
2022-08-09T01:27:43.967Z,78.02
2022-08-09T01:30:33.547Z,78.11
2022-08-09T01:33:11.675Z,78.05
2022-08-09T01:35:46.563Z,77.96
2022-08-09T01:38:27.100Z,77.95
2022-08-09T01:41:05.138Z,77.91
2022-08-09T01:43:51.070Z,77.93
2022-08-09T01:46:24.797Z,77.95
2022-08-09T01:48:59.648Z,78.10
2022-08-09T01:51:32.134Z,78.18
2022-08-09T01:54:04.272Z,78.27
2022-08-09T01:56:36.392Z,78.46
2022-08-09T01:59:10.947Z,78.57
2022-08-09T02:01:59.833Z,78.53
2022-08-09T02:04:30.992Z,78.93
2022-08-09T02:07:18.323Z,79.26
2022-08-09T02:10:05.632Z,79.45
2022-08-09T02:12:36.414Z,79.44
2022-08-09T02:15:11.999Z,79.43
2022-08-09T02:18:00.127Z,79.57
2022-08-09T02:20:41.882Z,79.94
2022-08-09T02:23:17.130Z,80.08
2022-08-09T02:25:52.836Z,80.02
2022-08-09T02:28:32.403Z,80.00
2022-08-09T02:31:05.809Z,80.02
2022-08-09T02:34:07.372Z,80.21
2022-08-09T02:36:35.035Z,80.42
2022-08-09T02:39:07.612Z,80.56
2022-08-09T02:41:53.841Z,80.79
2022-08-09T02:44:29.040Z,81.07
2022-08-09T02:47:04.409Z,81.01
2022-08-09T02:49:38.857Z,81.09
2022-08-09T02:52:16.365Z,81.35
2022-08-09T02:54:51.452Z,81.30
2022-08-09T02:57:25.586Z,81.51
2022-08-09T03:00:25.679Z,81.55
2022-08-09T03:02:59.894Z,81.71
2022-08-09T03:05:30.167Z,81.82
2022-08-09T03:08:05.359Z,81.84
2022-08-09T03:10:37.366Z,81.81
2022-08-09T03:13:08.670Z,81.93
2022-08-09T03:16:04.840Z,81.82
2022-08-09T03:18:31.614Z,81.84
2022-08-09T03:21:01.497Z,81.84
2022-08-09T03:23:30.272Z,81.84
2022-08-09T03:26:03.413Z,82.06
2022-08-09T03:28:35.935Z,81.94
2022-08-09T03:31:20.983Z,81.90
2022-08-09T03:33:54.146Z,81.89
2022-08-09T03:36:27.277Z,82.07
2022-08-09T03:38:58.003Z,82.29
2022-08-09T03:41:29.962Z,82.13
2022-08-09T03:44:15.565Z,82.28
2022-08-09T03:46:44.443Z,82.18
2022-08-09T03:49:19.106Z,82.04
2022-08-09T03:51:59.100Z,82.01
2022-08-09T03:54:34.336Z,82.12
2022-08-09T03:57:17.906Z,82.24
2022-08-09T03:59:55.057Z,82.58
2022-08-09T04:02:30.178Z,82.51
2022-08-09T04:05:06.414Z,82.35
2022-08-09T04:07:52.583Z,82.46
2022-08-09T04:10:29.064Z,82.40
2022-08-09T04:13:03.997Z,82.51
2022-08-09T04:15:52.502Z,82.63
2022-08-09T04:18:22.176Z,82.70
2022-08-09T04:20:55.029Z,82.86
2022-08-09T04:23:25.698Z,82.81
2022-08-09T04:25:55.513Z,82.71
2022-08-09T04:28:33.734Z,82.70
2022-08-09T04:31:13.006Z,82.78
2022-08-09T04:33:52.552Z,82.84
2022-08-09T04:36:26.053Z,82.85
2022-08-09T04:38:55.669Z,82.76
2022-08-09T04:41:32.453Z,82.85
2022-08-09T04:44:07.020Z,82.86
2022-08-09T04:46:58.361Z,82.94
2022-08-09T04:49:53.241Z,82.83
2022-08-09T04:52:26.252Z,82.80
2022-08-09T04:54:56.406Z,82.76
2022-08-09T04:57:25.414Z,82.72
2022-08-09T04:59:55.405Z,82.65
2022-08-09T05:02:27.342Z,82.79
2022-08-09T05:04:59.004Z,82.83
2022-08-09T05:07:39.854Z,82.84
2022-08-09T05:10:09.626Z,82.65
2022-08-09T05:12:38.955Z,82.58
2022-08-09T05:15:11.656Z,82.52
2022-08-09T05:18:39.558Z,82.49
2022-08-09T05:20:42.695Z,82.41
2022-08-09T05:23:53.573Z,82.49
2022-08-09T05:26:05.695Z,82.31
2022-08-09T05:28:38.700Z,82.24
2022-08-09T05:31:09.590Z,81.99
2022-08-09T05:33:42.639Z,81.90
2022-08-09T05:36:11.460Z,81.67
2022-08-09T05:38:46.152Z,81.39
2022-08-09T05:41:15.987Z,81.16
2022-08-09T05:43:49.077Z,80.78
2022-08-09T05:46:18.159Z,80.81
2022-08-09T05:48:48.673Z,80.38
2022-08-09T05:51:42.813Z,80.34
2022-08-09T05:54:24.540Z,80.09
2022-08-09T05:56:54.519Z,79.91
2022-08-09T05:59:24.119Z,79.85
2022-08-09T06:01:59.102Z,79.74
2022-08-09T06:04:35.032Z,79.91
2022-08-09T06:07:10.637Z,79.59
2022-08-09T06:10:01.755Z,79.44
2022-08-09T06:12:31.630Z,79.13
2022-08-09T06:15:01.891Z,79.34
2022-08-09T06:17:40.039Z,78.82
2022-08-09T06:20:10.232Z,78.34
2022-08-09T06:22:40.157Z,78.08
2022-08-09T06:25:12.272Z,77.85
2022-08-09T06:27:41.332Z,77.73
2022-08-09T06:30:14.289Z,77.68
2022-08-09T06:33:13.351Z,76.94
2022-08-09T06:35:56.338Z,76.57
2022-08-09T06:38:24.088Z,76.51
2022-08-09T06:41:02.071Z,76.64
2022-08-09T06:43:34.337Z,75.94
2022-08-09T06:46:07.170Z,75.39
2022-08-09T06:48:42.650Z,75.05
2022-08-09T06:51:12.265Z,74.66
2022-08-09T06:53:43.403Z,74.57
2022-08-09T06:56:16.658Z,74.21
2022-08-09T07:00:50.662Z,73.66
2022-08-09T07:01:53.821Z,73.54
2022-08-09T07:04:26.978Z,72.76
2022-08-09T07:07:00.618Z,72.32
2022-08-09T07:09:56.539Z,71.42
2022-08-09T07:12:38.532Z,71.89
2022-08-09T07:16:35.097Z,71.42
2022-08-09T07:18:05.362Z,71.01
2022-08-09T07:20:43.605Z,70.00
2022-08-09T07:23:18.211Z,69.07
2022-08-09T07:25:48.124Z,69.17
2022-08-09T07:28:26.193Z,68.50
2022-08-09T07:30:59.914Z,67.47
2022-08-09T07:33:30.909Z,68.63
2022-08-09T07:36:55.596Z,68.86
2022-08-09T07:39:40.199Z,67.58
2022-08-09T07:42:11.426Z,66.97
2022-08-09T07:44:51.930Z,67.74
2022-08-09T07:47:23.155Z,66.76
2022-08-09T07:50:05.270Z,66.74
2022-08-09T07:52:36.632Z,66.04
2022-08-09T07:55:09.977Z,66.64
2022-08-09T07:57:47.220Z,65.88
2022-08-09T08:00:20.154Z,65.79
2022-08-09T08:03:04.490Z,65.53
2022-08-09T08:05:54.256Z,64.85
2022-08-09T08:08:59.970Z,65.09
2022-08-09T08:12:10.009Z,64.02
2022-08-09T08:13:58.625Z,64.08
2022-08-09T08:16:31.821Z,64.11
2022-08-09T08:19:03.067Z,63.92
2022-08-09T08:21:39.455Z,64.16
2022-08-09T08:24:12.152Z,62.20
2022-08-09T08:26:55.801Z,63.54
2022-08-09T08:29:28.066Z,62.76
2022-08-09T08:32:03.648Z,62.26
2022-08-09T08:34:38.380Z,62.85
2022-08-09T08:37:15.839Z,62.38
2022-08-09T08:39:47.235Z,61.63
2022-08-09T08:42:15.920Z,61.99
2022-08-09T08:44:46.290Z,62.08
2022-08-09T08:47:16.993Z,61.80
2022-08-09T08:49:48.439Z,60.94
2022-08-09T08:52:52.802Z,60.94
2022-08-09T08:55:08.987Z,60.48
2022-08-09T08:57:38.000Z,60.79
2022-08-09T09:00:17.328Z,58.70
2022-08-09T09:03:12.166Z,60.67
2022-08-09T09:05:58.565Z,59.99
2022-08-09T09:08:40.305Z,60.30
2022-08-09T09:11:13.607Z,60.56
2022-08-09T09:13:56.261Z,58.87
2022-08-09T09:16:30.274Z,59.49
2022-08-09T09:22:11.483Z,59.36
2022-08-09T09:24:43.465Z,60.14
2022-08-09T09:27:22.181Z,59.57
2022-08-09T09:30:28.918Z,85.61
2022-08-09T09:33:16.820Z,90.40
2022-08-09T09:36:01.606Z,90.78
2022-08-09T09:38:42.735Z,91.17
2022-08-09T09:41:11.914Z,90.60
2022-08-09T09:44:10.350Z,94.07
2022-08-09T09:46:51.611Z,91.79
2022-08-09T09:49:32.248Z,90.94
2022-08-09T09:52:24.127Z,89.35
2022-08-09T09:55:07.987Z,89.71
2022-08-09T09:58:03.787Z,89.04
2022-08-09T10:00:54.185Z,90.39
2022-08-09T10:03:58.027Z,87.96
2022-08-09T10:06:32.233Z,87.12
2022-08-09T10:09:11.732Z,89.68
2022-08-09T10:12:07.742Z,87.26
2022-08-09T10:14:43.925Z,84.83
2022-08-09T10:17:40.276Z,84.62
2022-08-09T10:20:14.903Z,84.70
2022-08-09T10:22:45.060Z,84.35
2022-08-09T10:25:15.355Z,84.83
2022-08-09T10:27:57.605Z,83.98
2022-08-09T10:34:05.213Z,82.90
2022-08-09T10:36:09.383Z,82.49
2022-08-09T10:38:56.070Z,82.71
2022-08-09T10:41:28.364Z,82.42
2022-08-09T10:43:59.487Z,80.41
2022-08-09T10:46:54.575Z,83.79
2022-08-09T10:49:49.974Z,81.32
2022-08-09T10:52:44.752Z,80.18
2022-08-09T10:55:24.489Z,81.12
2022-08-09T10:57:58.669Z,82.32
2022-08-09T11:00:41.876Z,82.77
2022-08-09T11:10:53.322Z,83.07
2022-08-09T11:19:13.906Z,81.00
2022-08-09T11:23:30.178Z,80.86
2022-08-09T11:26:54.951Z,78.19
2022-08-09T11:31:52.635Z,77.40
2022-08-09T11:34:31.340Z,76.81
2022-08-09T11:41:43.771Z,78.81
2022-08-09T11:44:13.646Z,78.05
2022-08-09T11:47:00.060Z,78.01
2022-08-09T11:50:55.951Z,78.03
2022-08-09T11:54:01.016Z,75.74
2022-08-09T11:56:41.927Z,77.79
2022-08-09T11:59:29.840Z,77.15
2022-08-09T12:02:34.457Z,76.63
2022-08-09T12:04:58.049Z,76.86
2022-08-09T12:07:41.446Z,76.02
2022-08-09T12:10:31.976Z,75.12
2022-08-09T12:14:06.393Z,74.72
2022-08-09T12:15:52.774Z,72.99
2022-08-09T12:18:29.861Z,73.67
2022-08-09T12:21:00.585Z,72.73
2022-08-09T12:24:02.673Z,73.89
2022-08-09T12:26:25.577Z,72.82
2022-08-09T12:29:13.567Z,71.99
2022-08-09T12:32:01.763Z,72.21
2022-08-09T12:34:38.314Z,75.67
2022-08-09T12:37:22.288Z,72.87
2022-08-09T12:40:03.633Z,72.83
2022-08-09T12:42:35.060Z,70.45
2022-08-09T12:45:34.566Z,72.05
2022-08-09T12:47:56.236Z,71.73
2022-08-09T12:50:26.319Z,71.21
2022-08-09T12:53:09.481Z,71.03
2022-08-09T12:56:12.146Z,68.65
2022-08-09T12:58:34.738Z,68.93
2022-08-09T13:01:22.910Z,68.78
2022-08-09T13:04:01.857Z,68.04
2022-08-09T13:06:35.430Z,69.45
2022-08-09T13:09:10.451Z,67.39
2022-08-09T13:11:43.487Z,72.03
2022-08-09T13:14:42.349Z,67.97
2022-08-09T13:17:04.020Z,67.79
2022-08-09T13:20:09.336Z,66.65
2022-08-09T13:22:36.091Z,67.62
2022-08-09T13:25:07.965Z,66.21
2022-08-09T13:27:54.454Z,65.91
2022-08-09T13:30:51.049Z,65.82
2022-08-09T13:33:24.205Z,64.27
2022-08-09T13:36:38.707Z,64.41
2022-08-09T13:38:54.378Z,65.16
2022-08-09T13:41:58.761Z,63.44
2022-08-09T13:44:16.373Z,64.22
2022-08-09T13:47:29.049Z,63.79
2022-08-09T13:49:39.899Z,62.93
2022-08-09T13:52:24.708Z,64.98
2022-08-09T13:54:58.951Z,62.06
2022-08-09T13:57:35.527Z,63.58
2022-08-09T14:00:08.553Z,61.83
2022-08-09T14:03:02.142Z,63.31
2022-08-09T14:05:59.123Z,61.50
2022-08-09T14:08:21.738Z,63.81
2022-08-09T14:10:53.409Z,62.02
2022-08-09T14:14:15.785Z,58.70
2022-08-09T14:16:15.382Z,60.02
2022-08-09T14:18:49.455Z,58.72
2022-08-09T14:21:21.030Z,60.25
2022-08-09T14:23:53.825Z,59.29
2022-08-09T14:26:31.710Z,58.00
2022-08-09T14:29:08.060Z,59.46
2022-08-09T14:31:54.504Z,57.38
2022-08-09T14:34:31.400Z,56.93
2022-08-09T14:37:07.583Z,56.42
2022-08-09T14:39:45.373Z,59.25
2022-08-09T14:42:31.698Z,56.32
2022-08-09T14:46:46.061Z,55.98
2022-08-09T14:47:58.844Z,56.26
2022-08-09T14:50:30.996Z,56.45
2022-08-09T14:53:00.586Z,55.98
2022-08-09T14:55:32.619Z,57.90
2022-08-09T14:58:05.691Z,59.48
2022-08-09T15:00:37.086Z,55.78
2022-08-09T15:03:10.585Z,59.24
2022-08-09T15:05:40.196Z,58.15
2022-08-09T15:08:20.217Z,57.50
2022-08-09T15:11:00.798Z,56.55
2022-08-09T15:13:56.000Z,56.63
2022-08-09T15:16:20.900Z,56.87
2022-08-09T15:18:49.854Z,57.73
2022-08-09T15:21:54.744Z,55.45
2022-08-09T15:24:12.674Z,54.75
2022-08-09T15:26:46.283Z,53.92
2022-08-09T15:30:57.083Z,55.11
2022-08-09T15:32:29.346Z,52.48
2022-08-09T15:35:18.031Z,52.89
2022-08-09T15:37:56.260Z,51.79
2022-08-09T15:40:32.143Z,51.68
2022-08-09T15:43:02.436Z,51.23
2022-08-09T15:45:51.790Z,53.78
2022-08-09T15:48:28.845Z,51.68
2022-08-09T15:50:58.277Z,51.66
2022-08-09T15:54:05.003Z,52.04
2022-08-09T15:56:28.427Z,53.18
2022-08-09T15:58:58.141Z,51.24
2022-08-09T16:01:31.452Z,52.60
2022-08-09T16:04:04.214Z,52.62
2022-08-09T16:06:35.319Z,52.14
2022-08-09T16:09:06.322Z,53.07
2022-08-09T16:11:35.209Z,53.34
2022-08-09T16:14:07.944Z,48.76
2022-08-09T16:16:41.936Z,49.55
2022-08-09T16:19:14.686Z,50.66
2022-08-09T16:21:48.677Z,49.62
2022-08-09T16:24:33.251Z,49.62
2022-08-09T16:27:04.861Z,50.48
2022-08-09T16:29:37.411Z,51.40
2022-08-09T16:32:18.159Z,51.79
2022-08-09T16:34:58.298Z,50.40
2022-08-09T16:37:54.470Z,49.98
2022-08-09T16:40:20.559Z,48.20
2022-08-09T16:42:58.632Z,49.39
2022-08-09T16:45:28.184Z,49.79
2022-08-09T16:48:42.405Z,48.89
2022-08-09T16:50:58.864Z,47.86
2022-08-09T16:53:32.582Z,49.55
2022-08-09T16:56:09.158Z,50.09
2022-08-09T16:59:57.408Z,48.92
2022-08-09T17:03:51.525Z,49.03
2022-08-09T17:24:20.065Z,50.65
2022-08-09T18:02:30.377Z,67.98
2022-08-09T18:05:01.591Z,67.62
2022-08-09T18:07:30.372Z,68.04
2022-08-09T18:10:05.680Z,68.04
2022-08-09T18:12:40.307Z,67.68
2022-08-09T18:15:27.572Z,68.17
2022-08-09T18:18:25.509Z,68.25
2022-08-09T18:21:19.149Z,72.69
2022-08-09T18:24:12.115Z,77.46
2022-08-09T18:26:33.087Z,80.91
2022-08-09T18:30:35.288Z,82.55
2022-08-09T18:31:55.383Z,83.63
2022-08-09T18:34:31.817Z,85.22
2022-08-09T18:37:00.678Z,86.53
2022-08-09T18:39:32.693Z,86.57
2022-08-09T18:42:08.859Z,87.54
2022-08-09T18:44:38.128Z,88.06
2022-08-09T18:47:15.736Z,87.67
2022-08-09T18:49:54.947Z,87.61
2022-08-09T18:52:34.925Z,87.79
2022-08-09T18:55:13.674Z,87.77
2022-08-09T18:57:45.447Z,88.90
2022-08-09T19:00:16.464Z,89.00
2022-08-09T19:02:59.399Z,90.44
2022-08-09T19:06:02.177Z,91.60
2022-08-09T19:08:19.930Z,92.37
2022-08-09T19:10:49.110Z,93.32
2022-08-09T19:13:22.293Z,93.95
2022-08-09T19:15:56.293Z,94.50
2022-08-09T19:18:33.756Z,95.21
2022-08-09T19:21:10.612Z,95.81
2022-08-09T19:24:32.490Z,96.17
2022-08-09T19:26:32.280Z,96.33
2022-08-09T19:29:03.185Z,96.71
2022-08-09T19:31:45.153Z,97.00
2022-08-09T19:34:21.728Z,97.07
2022-08-09T19:36:53.596Z,97.29
2022-08-09T19:39:43.865Z,97.66
2022-08-09T19:42:14.601Z,97.76
2022-08-09T19:44:43.481Z,97.61
2022-08-09T19:47:12.336Z,97.87
2022-08-09T19:50:07.978Z,97.96
2022-08-09T19:52:36.911Z,97.95
2022-08-09T19:55:06.417Z,97.87
2022-08-09T19:57:35.108Z,97.68
2022-08-09T20:00:06.643Z,98.12
2022-08-09T20:04:16.924Z,98.03
2022-08-09T20:05:29.672Z,98.00
2022-08-09T20:08:24.999Z,98.21
2022-08-09T20:11:02.706Z,97.88
2022-08-09T20:13:36.754Z,97.87
2022-08-09T20:16:35.159Z,98.16
2022-08-09T20:19:04.000Z,98.08
2022-08-09T20:21:56.171Z,98.01
2022-08-09T20:24:31.764Z,97.92
2022-08-09T20:27:05.621Z,97.53
2022-08-09T20:29:38.949Z,97.71
2022-08-09T20:32:30.694Z,97.42
2022-08-09T20:34:58.095Z,97.53
2022-08-09T20:38:19.036Z,97.13
2022-08-09T20:40:24.669Z,96.93
2022-08-09T20:42:59.832Z,96.03
2022-08-09T20:45:59.757Z,95.30
2022-08-09T20:48:30.904Z,95.35
2022-08-09T20:51:01.199Z,94.90
2022-08-09T20:53:37.542Z,94.62
2022-08-09T20:56:20.470Z,94.68
2022-08-09T20:58:56.150Z,94.01
2022-08-09T21:01:35.267Z,93.33
2022-08-09T21:05:57.264Z,92.83
2022-08-09T21:07:13.893Z,94.10
2022-08-09T21:09:57.013Z,94.43
2022-08-09T21:15:23.854Z,93.64
2022-08-09T21:18:22.879Z,93.19
2022-08-09T21:20:54.566Z,93.66
2022-08-09T21:23:36.027Z,93.85
2022-08-09T21:26:15.514Z,94.23
2022-08-09T21:28:56.019Z,93.64
2022-08-09T21:31:48.440Z,92.59
2022-08-09T21:34:21.103Z,92.33
2022-08-09T21:36:57.556Z,92.14
2022-08-09T21:39:28.055Z,91.75
2022-08-09T21:42:10.806Z,91.82
2022-08-09T21:44:42.756Z,91.27
2022-08-09T21:47:18.084Z,90.92
2022-08-09T21:49:48.198Z,89.92
2022-08-09T21:52:20.677Z,89.68
2022-08-09T21:54:59.404Z,89.70
2022-08-09T21:57:39.385Z,89.38
2022-08-09T22:00:26.821Z,88.73
2022-08-09T22:03:04.846Z,88.69
2022-08-09T22:05:37.077Z,88.56
2022-08-09T22:08:13.264Z,88.44
2022-08-09T22:11:48.990Z,88.47
2022-08-09T22:13:34.826Z,88.36
2022-08-09T22:16:08.588Z,88.35
2022-08-09T22:18:38.118Z,87.77
2022-08-09T22:21:09.375Z,87.71
2022-08-09T22:23:59.847Z,87.20
2022-08-09T22:26:35.622Z,87.06
2022-08-09T22:29:08.760Z,86.11
2022-08-09T22:31:44.634Z,86.56
2022-08-09T22:34:25.839Z,86.40
2022-08-09T22:36:59.141Z,86.46
2022-08-09T22:39:55.383Z,86.13
2022-08-09T22:42:21.943Z,85.84
2022-08-09T22:48:06.019Z,85.50
2022-08-09T22:48:10.395Z,85.03
2022-08-09T22:50:33.256Z,85.58
2022-08-09T22:53:03.694Z,85.74
2022-08-09T22:56:06.542Z,85.31
2022-08-09T22:58:32.571Z,85.77
2022-08-09T23:01:03.419Z,85.96
2022-08-09T23:04:04.645Z,86.23
2022-08-09T23:06:34.853Z,85.77
2022-08-09T23:09:05.943Z,87.23
2022-08-09T23:11:34.680Z,87.36
2022-08-09T23:14:09.796Z,87.78
2022-08-09T23:16:45.951Z,88.06
2022-08-09T23:19:15.767Z,88.17
2022-08-09T23:21:44.359Z,88.61
2022-08-09T23:24:12.987Z,87.77
2022-08-09T23:26:41.966Z,88.58
2022-08-09T23:29:14.121Z,88.06
2022-08-09T23:31:45.409Z,88.21
2022-08-09T23:34:15.194Z,88.09
2022-08-09T23:36:43.596Z,87.50
2022-08-09T23:39:12.151Z,87.47
2022-08-09T23:41:40.703Z,87.67
2022-08-09T23:44:09.420Z,87.50
2022-08-09T23:46:38.290Z,87.70
2022-08-09T23:49:06.998Z,87.53
2022-08-09T23:51:36.935Z,87.89
2022-08-09T23:54:05.435Z,87.68
2022-08-09T23:56:52.602Z,87.78
2022-08-09T23:59:24.801Z,85.68
